今日のアクセス数

    岡山グライダークラブ活動状況掲示板あなたは無料カウンター人目の訪問者です

岡山グライダークラブ
岡山市浦安南町639-1 岡南飛行場
 使用機:シャイベ式 SF25C型 ファルケ   JA2330
      ヴァレンティン式17E型 タイフーン  JA2342
 練習日:毎日曜日  クラブルーム:電話 086-265-1810
この掲示板は岡山グライダークラブの活動状況をお知らせする掲示板です。
!!!この掲示板は投稿規制をしています。!!!
クラブ関連各種情報は 岡山グライダークラブクラブルーム      を       .
  ブリーフイング情報は  岡山グライダークラブブリーフィングルーム  をご覧下さい。 .
※写真はクリックすると拡大して見ることが出来ます。
岡南飛行場へのアクセス等は 岡南飛行場管理事務所 をご覧ください。
クラブの ホームページ ができました。

ページ 1 (1〜10)ホームページへ戻る

04月21日
by OGC at 2019/4/21(日) 23:11:46 No.20190421210418 コメント】  削除 引用
1024 x 768 x 74,853バイト
No.1

04月21日
本日の参加者
  会員      16名
  その他      4名


@本日の様子




METAR
RJBK 210000Z 12003KT 70V160 15KM FEW025CU BKN035CU 17/12 Q1013 A2994
RJOB 210000Z 10003KT 050V210 9999 FEW015 BKN020 16/10 Q1013
RJOT 210000Z 02004KT 310V060 9999 FEW030 19/11 Q1013
RJOA 210000Z 15003KT 100V250 8000 FEW015 SCT020 18/11 Q1013
TAF
RJOB 202309Z 2100/2206 20007KT 9999 FEW025
         BECMG 2110/2112 02005KT
RJOT 202308Z 2100/2206 02005KT 9999 FEW025 SCT040
RJOA  202310Z 2100/2206 20007KT 9999 FEW030
         BECMG 2121/2200 15006KT

本日は機体点検が10時前に終わりました。機体点検に手慣れてきたようです。この調子でお願いします。
天候は弱い横風で、絶好の横風着陸の訓練日和ということで、訓練生はファルケで横風着陸の練習でTGLを繰り返していました。
ライセンサーは、タイフーンでいつも通りサーマルを探したり、直島まで出て行ったりしていたようです。
本日は近年の記録更新となりました。会員の出席者が16名。。。(^_^)v


解散    18:00

1番機  10:45離陸 撤収機  17:35着陸 

SF25C JA2330 ファルケ     11Flt.3h55min  
17E   JA2342 タイフーン    05Flt.2h00min  
合計                    16Flt.5h55min
04月14日
by OGC at 2019/4/14(日) 20:57:26 No.20190414205130 コメント】  削除 引用
1024 x 768 x 75,313バイト
No.1

04月14日
本日の参加者
  会員      13名
  その他      0名


@本日の様子




METAR
RJBK 140100Z VRB02KT 25KM FEW030CU SCT040CU BKN040SC 14/09 Q1017 A3004
RJOB 140100Z 07006KT 9999 -SHRA FEW020 BKN045 BKN060 12/09 Q1017
RJOT 140100Z VRB02KT 9999 -SHRA FEW025 SCT040 BKN080 13/08 Q1017
RJOA 140100Z 31004KT 290V350 7000 -SHRA FEW010 BKN030 09/06 Q1017
TAF
RJOB 132308Z 1400/1506 10006KT 6000 -SHRA FEW003 SCT008 BKN015
         TEMPO 1400/1406 4000 SHRA BR FEW003 SCT005 BKN008
         BECMG 1403/1405 20005KT
         TEMPO 1406/1409 2000 -SHRA BR BCFG FEW000 SCT003 BKN005
RJOT 132309Z 1400/1506 03004KT 9000 -SHRA FEW015 SCT020 BKN030
         BECMG 1402/1404 4000 -SHRA BR FEW002 SCT005 BKN008
         TEMPO 1404/1409 1500 SHRA BR FEW001 BKN003 BKN005
         BECMG 1409/1411 26010KT
         TEMPO 1409/1412 1500 -SHRA BR FEW001 BKN003 BKN005
         BECMG 1412/1415 9999 NSW FEW030
RJOA 132307Z 1400/1506 09005KT 9999 FEW010 SCT020 BKN030
         TEMPO 1401/1404 3000 SHRA BR BCFG FEW000 SCT005 BKN008
         BECMG 1402/1404 21004KT
         TEMPO 1404/1408 2000 -SHRA BR BCFG FEW000 BKN005 BKN008

本日は朝から何時雨が降り出してもおかしくない天候のため、雨レーダーとにらめっこしながらの活動になりました。
降雨地域が自然に湧いてきて、雨レーダーで合間があると思っても当てにならず。雨に降られ直ぐに帰って来ていました。


解散    17:00

1番機  13:10離陸 撤収機  15:25着陸 

SF25C JA2330 ファルケ     03Flt.0h35min  
17E   JA2342 タイフーン    00Flt.0h00min  
合計                    03Flt.0h35min

04月07日
by OGC at 2019/4/7(日) 21:57:34 No.20190407215514 コメント】  削除 引用
1024 x 768 x 105,401バイト
No.1

04月07日
本日の参加者
  会員      14名
  その他      2名


@本日の様子




METAR
RJBK 070100Z 19003KT 150V250 10KM FEW/// 09/07 Q1010 A2983
RJOB 070100Z 24007KT 190V270 CAVOK 17/07 Q1010
RJOT 070100Z 28007KT 250V330 CAVOK 18/06 Q1010
RJOA 070100Z 30003KT 230V030 CAVOK 17/01 Q1010
TAF
RJOB 062308Z 0700/0806 22007KT 9999 FEW025 SCT040
     BECMG 0706/0708 36005KT
     TEMPO 0715/0718 4000 -SHRA BR FEW001 BKN007 BKN012
     BECMG 0721/0800 27013KT
RJOT 062308Z 0700/0806 26010KT 9999 FEW025
     BECMG 0712/0715 4000 -SHRA BR FEW003 BKN008 BKN015
     TEMPO 0715/0800 1500 -SHRA BR FEW001 SCT002 BKN005
     BECMG 0800/0803 9999 NSW FEW030
RJOA 062306Z 0700/0806 25005KT 9999 FEW020 SCT040
     TEMPO 0712/0721 3000 -SHRA BR BCFG FEW000 SCT002 BKN005
     BECMG 0803/0806 29015KT

本日は黄砂の影響で視程が悪く、何時もよりトラフィック情報が気になりました。
ファルケはいつも通り、NAV訓練や着陸練習。タイフーンは何時もの訓練フライトの他、牛窓へ帆船見物に行って来たようです。
また、2グループの見学があり、賑やかな一日になったようです。


解散    18:15

1番機  10:55離陸 撤収機  17:50着陸 

SF25C JA2330 ファルケ     09Flt.4h20min  
17E   JA2342 タイフーン    04Flt.1h45min  
合計                    13Flt.6h05min

3月31日
by OGC at 2019/3/31(日) 23:12:47 No.20190331230743 コメント】  削除 引用
1024 x 768 x 101,502バイト
No.1

03月31日
本日の参加者
  会員      13名
  その他      0名


@本日の様子




METAR
RJOB 310100Z 26015KT 220V290 9999 FEW020 SCT030 09/01 Q1013
RJOT 310100Z 28017KT 9999 FEW030 10/00 Q1014
RJOA 310100Z 26015KT 230V300 9999 FEW030 SCT035 09/M02 Q1014
TAF
RJOB 302308Z 3100/0106 27014KT 9999 FEW025 SCT045
         TEMPO 3100/3106 28016G26KT
         TEMPO 0103/0106 27015G25KT
RJOT 302313Z 3100/0106 27019KT 9999 FEW030 SCT050
         TEMPO 3100/3107 27021G32KT
         BECMG 3108/3110 25008KT
         TEMPO 0100/0106 27019G30KT
RJOA 302312Z 3100/0106 28016KT 9999 FEW025 SCT040
         TEMPO 3100/3108 28017G28KT
         BECMG 3109/3111 29006KT
         TEMPO 0100/0106 29017G28KT

今朝は快晴、時折、雪雲が雨を運んできていました。横風成分のガストがあり着陸が難しいコンディションでしたが、上空では上昇率がよく高度を下げるのに苦労するフライトもありました。
タイフーンの整備も終わり、やっと通常フライトの体制に戻りました。ファルケは先週に続き12フライトの近年最高記録と並びました。


解散    18:15

1番機  11:40離陸 撤収機  17:45着陸 

SF25C JA2330 ファルケ     12Flt.2h35min  
17E   JA2342 タイフーン    04Flt.1h55min  
合計                    16Flt.4h30min
03月24日
by OGC at 2019/3/25(月) 00:04:13 No.20190325000059 コメント】  削除 引用
1024 x 768 x 93,922バイト
No.1

03月24日
本日の参加者
  会員      14名
  その他      0名


@本日の様子




METAR
RJBK 240100Z 26004KT 200V310 30KM FEW030CU 09/M00 Q1021 A3015
RJOB 240100Z VRB05KT 9999 FEW020 SCT030 08/02 Q1019
RJOT 240100Z 26009KT 240V300 9999 FEW020 SCT030 09/M00 Q1020
RJOA 240100Z 35005KT 280V060 9999 FEW020 BKN025 06/M02 Q1020
TAF
RJOB 232308Z 2400/2506 26007KT 9999 FEW020 SCT035
RJOT 232306Z 2400/2506 26010KT 9999 FEW030 SCT060
         BECMG 2408/2410 17006KT
RJOA 232305Z 2400/2506 29006KT 9999 FEW025 BKN040

今朝は気温が低く快晴、サーマルが期待できるベストコンデション、昼頃になると積雲も予想通りポコポコと沢山出来ていました。
本日は会員の集まりがよくタイフーンが整備中のため1フライト平均15分で計12フライト、近年、過去最高を記録しました。


解散    18:00

1番機  11:10離陸 撤収機  17:45着陸 

SF25C JA2330 ファルケ     12Flt.2h55min  
17E   JA2342 タイフーン    00Flt.0h00min  
合計                    12Flt.2h55min
03月17日
by OGC at 2019/3/18(月) 00:38:54 No.20190318003754 コメント】  削除 引用
1024 x 768 x 91,126バイト
No.1

03月16日
本日の参加者
  会員      13名
  その他      0名


@本日の様子




METAR
RJOB 170200Z 28008KT 250V320 9999 FEW020 SCT080 09/03 Q1018
RJOT 170200Z 30017KT 9999 -TSRA FEW020 FEW025CB BKN030 08/05 Q1018
RJOA 170205Z 29015G25KT 250V320 9999 FEW020 SCT030 10/01 Q1018 RMK 1CU020 4CU030 A3008
TAF
RJOB 162309Z 1700/1806 27009KT 9000 -SHRA FEW010 SCT020 BKN035
          BECMG 1712/1715 06004KT
          BECMG 1800/1803 19005KT
RJOT 162311Z 1700/1806 27018KT 9999 FEW030 BKN045
          TEMPO 1700/1706 27022G32KT
          BECMG 1707/1709 23005KT
          BECMG 1712/1715 15005KT
RJOA 162305Z 1700/1806 30015KT 9999 FEW020 BKN040
          TEMPO 1701/1706 28017G27KT
          BECMG 1709/1711 35005KT
          BECMG 1712/1715 04005KT

本日は、ファルケの整備が終わり、テストフライト後に通常のフライトを行いました。
一方、タイフーンは整備中のため、フライトはできませんでした。

解散    18:50

1番機  12:30離陸 撤収機  17:30着陸 

SF25C JA2330 ファルケ     08Flt.2h15min  
17E   JA2342 タイフーン    00Flt.0h00min  
合計                    08Flt.2h15min
03月10日
by OGC at 2019/3/10(日) 19:33:12 No.20190310192749 コメント】  削除 引用
1024 x 768 x 135,404バイト
No.1

03月10日
本日の参加者
  会員       9名
  その他      3名


@本日の様子




METAR
RJBK 100000Z 03003KT 360V060 15KM -RA FEW035CU SCT060SC BKN100AC 10/07 Q1017 A3004
RJOB 100000Z 05011KT 9999 -RA FEW008 SCT015 BKN050 09/07 Q1017
RJOT 100000Z 07009KT 9999 -RA FEW005 SCT050 BKN070 10/09 Q1016
RJOA 100000Z 06012KT 9999 -RA BCFG FEW000 SCT040 BKN050 08/06 Q1015
TAF
RJOB 092309Z 1000/1106 07010KT 7000 -RA FEW005 SCT010 BKN020
          TEMPO 1003/1012 3000 RA BR BCFG FEW000 SCT003 BKN005
          BECMG 1012/1015 3000 -RA BR BCFG FEW000 SCT003 BKN005
          TEMPO 1015/1021 1500 -RA BR BCFG
          BECMG 1018/1021 28014KT
          BECMG 1021/1100 9999 NSW FEW025 SCT045
RJOT 092309Z 1000/1106 07010KT 7000 -RA FEW005 SCT010 BKN020
          TEMPO 1003/1012 3000 RA BR BCFG FEW000 SCT003 BKN005
          BECMG 1012/1015 3000 -RA BR BCFG FEW000 SCT003 BKN005
          TEMPO 1015/1021 1500 -RA BR BCFG
          BECMG 1018/1021 28014KT
          BECMG 1021/1100 9999 NSW FEW025 SCT045
RJOA 092305Z 1000/1106 08012KT 8000 -RA FEW002 SCT008 BKN010
          TEMPO 1000/1004 4000 -RA BR BCFG FEW000 BKN008 BKN015
          BECMG 1004/1006 4000 -RA BR FEW001 SCT005 BKN008
          TEMPO 1007/1012 2000 RA BR BCFG FEW000 SCT003 BKN005
          TEMPO 1012/1015 1500 RA BR BCFG FEW000 SCT003 BKN005
          BECMG 1015/1018 30016KT 9999 NSW FEW015 BKN040


本日は予報通り雨、雨が一時的に上がるのを期待しましたが、しっかり雨が降り続けたため、
本日のフライトはできませんでした。


解散    17:00


本日のフライトはありませんでした。
03月03日
by OGC at 2019/3/3(日) 20:26:34 No.20190303201435 コメント】  削除 引用
1024 x 768 x 64,610バイト
No.1

03月03日
本日の参加者
  会員      10名
  その他      1名


@本日の様子




METAR
RJBK 030400Z VRB02KT 15KM FEW020CU SCT050SC BKN080AC 10/05 Q1012 A2989
RJOB 030400Z VRB02KT 9999 FEW015 SCT040 BKN060 10/05 Q1011
RJOT 030400Z 07007KT 9999 FEW010 BKN050 BKN070 09/04 Q1011
RJOA 030400Z 13004KT 090V160 2000 -RA BCFG BR FEW000 SCT002 BKN003 07/06 Q1011
TAF
RJOB 022312Z 0300/0406 04005KT 8000 -RA FEW002 SCT025 BKN040
     TEMPO 0302/0304 4500 -RA BR BCFG FEW000 SCT005 BKN008
     BECMG 0304/0306 4000 -RA BR
     TEMPO 0306/0312 1500 -RA BR BCFG FEW000 SCT005 BKN008
     BECMG 0318/0321 9999 NSW
RJOT 022312Z 0300/0406 06005KT 8000 -RA FEW003 SCT025 BKN045
     TEMPO 0300/0305 4000 -RA BR FEW001 BKN008 BKN040
     BECMG 0305/0307 3000 -RA BR BCFG FEW000 SCT003 BKN008
     TEMPO 0315/0321 0700 RA FG FEW000 SCT003 BKN005
     TEMPO 0321/0400 0500 -SHRA FG FEW000 SCT003 BKN005
     BECMG 0400/0403 28006KT 4000 -SHRA BR
RJOA 022306Z 0300/0406 06006KT 7000 -RA FEW001 SCT020 BKN045
     TEMPO 0300/0304 4000 -RA BR BCFG FEW000 BKN008 BKN020
     BECMG 0304/0306 4000 -RA BR FEW001 BKN008 BKN015
     TEMPO 0312/0318 1500 RA BR BCFG FEW000 SCT003 BKN005
     BECMG 0400/0403 34006KT 8000 NSW FEW002 SCT015 BKN030


本日は生憎の雨、雨の隙間を狙って始業点検を行いましたが、、、
間に合わず、本日のフライトはありませんでした。


解散    17:00


本日のフライトはありませんでした。
02月24日
by OGC at 2019/2/24(日) 21:23:48 No.20190224211633 コメント】  削除 引用
1024 x 768 x 80,201バイト
No.1

02月24日
本日の参加者
  会員       9名
  その他      1名


@本日の様子




METAR
RJBK 240100Z VRB01KT 20KM FEW030CU SCT180AC BKN/// 06/01 Q1024 A3026
RJOB 240100Z 05006KT 020V120 9999 FEW020 SCT170 BKN/// 07/M02 Q1023
RJOT 240100Z 03004KT 320V100 CAVOK 07/01 Q1023
RJOA 240100Z 08009KT CAVOK 06/M05 Q1023
TAF
RJOB 232307Z 2400/2506 07005KT 9999 FEW030
       BECMG 2406/2408 30005KT
RJOT 232309Z 2400/2506 06008KT 9999 FEW035
       BECMG 2418/2421 26006KT
RJOA 232306Z 2400/2506 14005KT 9999 FEW030
       BECMG 2410/2412 32006KT

本日は、思いのほかタイフーンの整備が早く終わり、テストフライトと2フライトを行いました。
一方、ファルケは整備中のため、フライトはできませんでした。
また、本日、1名が入会されました。(^-^)

解散    17:50

1番機  14:15離陸 撤収機  17:00着陸 

SF25C JA2330 ファルケ     00Flt.0h00min  
17E   JA2342 タイフーン    03Flt.0h45min  
合計                    03Flt.0h45min
02月17日
by OGC at 2019/2/18(月) 00:40:43 No.20190218003922 コメント】  削除 引用
1024 x 768 x 71,165バイト
No.1

02月17日
本日の参加者
  会員      10名
  その他      1名


@本日の様子




METAR
RJBK 170100 22004KT 170V270 25KM FEW030CU 07/01 Q1012 A3015
RJOB 170100Z VRB03KT 9999 FEW020 SCT030 06/M02 Q1019
RJOT 170100Z 25006KT 190V290 9999 FEW020 SCT025 07/00 Q1020
RJOA 170100Z 25005KT 210V300 9999 FEW025 BKN030 05/M03 Q1020
TAF
RJOB 162310Z 1700/1806 23005KT 9999 FEW025 BKN035
RJOT 162309Z 1700/1806 27006KT 9999 FEW025 SCT045
          BECMG 1721/1800 05005KT
RJOA 162307Z 1700/1806 32005KT 9999 FEW020 SCT045
          BECMG 1800/1803 14004KT


先週に引き続き2機とも整備で、フライトはありませんでした。


解散    16:45


本日のフライトはありませんでした。
ホームページへ 全 47 件 [ 1 2 3 4 5 ]

モータースポーツ | 管理者へメール | お知らせ | 一括削除
携帯から使う方法 | ヘルプ | 利用規約 | 違反報告 | 管理パネル



- 無料レンタル掲示板 -